Time;durP1;ratioP1;P1;durP2;ratioP2;P2;SDS_P1;SDS_P2;PMS_P1;PMS_P2;Temp;Humidity;BMP_temperature;BMP_pressure;BME280_temperature;BME280_humidity;BME280_pressure;Samples;Min_cycle;Max_cycle;Signal;HPM_P1;HPM_P2
2021/06/24 00:00:45;;;;;;;43.53;11.53;;;;;;;25.31;59.42;99452.42;366467;108;1964177;-72
2021/06/24 00:02:02;;;;;;;39.13;11.98;;;;;;;25.38;59.66;99448.12;389843;106;2004034;-72
2021/06/24 00:03:07;;;;;;;46.75;11.13;;;;;;;25.25;59.70;99446.19;309352;107;2540021;-71
2021/06/24 00:04:13;;;;;;;39.57;11.28;;;;;;;25.22;59.90;99442.09;326085;107;2201046;-73
2021/06/24 00:05:25;;;;;;;36.83;11.27;;;;;;;25.31;60.28;99441.37;388305;106;1961966;-72
2021/06/24 00:06:31;;;;;;;35.14;11.21;;;;;;;25.17;60.29;99446.92;370223;108;1971051;-70
2021/06/24 00:07:37;;;;;;;36.74;11.66;;;;;;;25.15;60.45;99446.37;364572;111;1962989;-73
2021/06/24 00:08:49;;;;;;;32.16;10.61;;;;;;;25.27;60.61;99438.41;399952;101;1985867;-71
2021/06/24 00:09:54;;;;;;;46.31;11.74;;;;;;;25.14;60.55;99441.95;381232;104;1962056;-72
2021/06/24 00:11:09;;;;;;;41.64;11.62;;;;;;;25.21;60.82;99442.39;386611;103;2072005;-72
2021/06/24 00:12:17;;;;;;;36.63;11.68;;;;;;;25.10;60.85;99443.70;379306;105;1969975;-72
2021/06/24 00:13:29;;;;;;;43.08;10.37;;;;;;;25.17;61.11;99438.63;397290;103;1985837;-73
2021/06/24 00:14:34;;;;;;;41.62;11.22;;;;;;;25.04;61.13;99442.19;373705;107;1961954;-73
2021/06/24 00:15:59;;;;;;;39.69;11.24;;;;;;;25.01;61.13;99446.38;300405;107;2453970;-73
2021/06/24 00:17:13;;;;;;;42.43;11.92;;;;;;;25.11;61.32;99446.17;406211;101;1985875;-72
2021/06/24 00:18:19;;;;;;;39.66;11.05;;;;;;;24.98;61.18;99444.20;384044;105;1961926;-74
2021/06/24 00:19:25;;;;;;;44.45;11.39;;;;;;;24.96;61.25;99444.53;304119;107;2421919;-72
2021/06/24 00:20:38;;;;;;;39.81;12.41;;;;;;;25.06;61.40;99445.44;393564;104;2072964;-73
2021/06/24 00:21:43;;;;;;;40.30;11.39;;;;;;;24.94;61.49;99441.25;380076;105;1962007;-72
2021/06/24 00:22:56;;;;;;;41.84;11.08;;;;;;;25.04;61.68;99442.19;350491;104;2780975;-73
2021/06/24 00:24:02;;;;;;;36.54;11.57;;;;;;;24.91;61.65;99447.39;326510;108;2208425;-73
2021/06/24 00:25:25;;;;;;;41.97;10.58;;;;;;;24.90;61.69;99453.21;370534;108;1962014;-72
2021/06/24 00:26:30;;;;;;;47.39;12.91;;;;;;;24.88;61.75;99441.67;370782;107;1961993;-71
2021/06/24 00:27:43;;;;;;;47.05;12.33;;;;;;;24.96;62.12;99441.77;351274;104;2774094;-73
2021/06/24 00:28:49;;;;;;;44.98;11.19;;;;;;;24.83;62.09;99441.77;308815;107;2353052;-72
2021/06/24 00:30:01;;;;;;;52.81;13.22;;;;;;;24.91;62.32;99438.29;389597;104;2072003;-73
2021/06/24 00:31:06;;;;;;;55.29;13.71;;;;;;;24.77;62.28;99447.39;375442;107;1962028;-73
2021/06/24 00:32:32;;;;;;;54.75;13.27;;;;;;;24.76;62.46;99455.97;341114;107;2857976;-72
2021/06/24 00:33:38;;;;;;;49.88;13.57;;;;;;;24.71;62.51;99448.59;371889;107;1962096;-72
2021/06/24 00:34:50;;;;;;;48.14;12.30;;;;;;;24.82;62.81;99445.64;403326;101;1985916;-73
2021/06/24 00:35:56;;;;;;;45.11;12.70;;;;;;;24.69;62.72;99450.02;376208;104;2841011;-72
2021/06/24 00:37:02;;;;;;;61.73;14.01;;;;;;;24.67;62.81;99441.24;345644;104;2694861;-73
2021/06/24 00:38:08;;;;;;;43.65;12.74;;;;;;;24.69;62.89;99444.49;383072;104;1961658;-73
2021/06/24 00:39:15;;;;;;;45.57;12.76;;;;;;;24.68;62.88;99442.87;377303;105;1960971;-73
2021/06/24 00:40:28;;;;;;;42.58;12.29;;;;;;;24.78;62.97;99428.86;387291;106;1986984;-72
2021/06/24 00:41:36;;;;;;;53.12;13.71;;;;;;;24.66;62.97;99440.39;315234;109;2264950;-71
2021/06/24 00:42:50;;;;;;;39.94;11.61;;;;;;;24.78;63.10;99435.20;383772;106;1986052;-71
2021/06/24 00:43:56;;;;;;;51.08;13.03;;;;;;;24.63;63.04;99441.02;363059;109;1963958;-70
2021/06/24 00:45:20;;;;;;;49.25;12.22;;;;;;;24.61;63.06;99440.52;356437;109;2857965;-71
2021/06/24 00:46:34;;;;;;;48.56;13.43;;;;;;;24.69;63.35;99439.81;393475;104;1986019;-72
2021/06/24 00:47:42;;;;;;;43.59;12.85;;;;;;;24.56;63.24;99444.19;374945;107;1962031;-72
2021/06/24 00:48:57;;;;;;;51.53;12.72;;;;;;;24.66;63.39;99445.92;390407;104;1986016;-71
2021/06/24 00:50:05;;;;;;;51.57;12.82;;;;;;;24.54;63.36;99443.66;362663;107;1962091;-70
2021/06/24 00:51:28;;;;;;;52.44;12.57;;;;;;;24.53;63.47;99443.95;340682;109;1962064;-73
2021/06/24 00:52:40;;;;;;;47.11;11.52;;;;;;;24.61;63.54;99440.52;395804;103;1978906;-72
2021/06/24 00:53:46;;;;;;;51.09;14.03;;;;;;;24.47;63.54;99439.66;373410;106;1962015;-71
2021/06/24 00:54:59;;;;;;;65.47;14.18;;;;;;;24.56;63.75;99435.09;375112;108;1986045;-71
2021/06/24 00:56:09;;;;;;;57.34;15.41;;;;;;;24.44;63.66;99431.95;287213;111;2435934;-73
2021/06/24 00:57:34;;;;;;;42.39;12.82;;;;;;;24.42;63.70;99428.67;363533;110;1962895;-71
2021/06/24 00:58:46;;;;;;;53.82;12.26;;;;;;;24.51;63.87;99430.47;373398;104;1960870;-71
2021/06/24 00:59:53;;;;;;;47.91;13.45;;;;;;;24.37;63.85;99429.58;357046;107;1969064;-72
2021/06/24 01:01:05;;;;;;;42.61;12.16;;;;;;;24.47;64.03;99431.38;394705;104;1965034;-72
2021/06/24 01:02:10;;;;;;;48.53;12.70;;;;;;;24.35;63.93;99431.84;374083;105;1964043;-71
2021/06/24 01:03:34;;;;;;;52.19;12.19;;;;;;;24.32;64.01;99433.27;374445;105;1964064;-72
2021/06/24 01:04:46;;;;;;;48.01;13.21;;;;;;;24.42;64.14;99432.25;389248;104;2072020;-72
2021/06/24 01:05:52;;;;;;;45.81;13.86;;;;;;;24.31;64.10;99433.55;373166;107;1962973;-70
2021/06/24 01:06:58;;;;;;;47.57;13.60;;;;;;;24.28;64.14;99440.50;372932;107;1961928;-71
2021/06/24 01:08:14;;;;;;;47.92;11.77;;;;;;;24.35;64.36;99435.41;384101;104;1966131;-71
2021/06/24 01:09:21;;;;;;;47.36;12.65;;;;;;;24.22;64.73;99438.95;340746;107;2629020;-70
2021/06/24 01:10:33;;;;;;;51.45;13.73;;;;;;;24.32;64.62;99440.73;395645;104;2072102;-72
2021/06/24 01:11:40;;;;;;;52.10;12.95;;;;;;;24.18;64.51;99432.39;380981;105;1962022;-72
2021/06/24 01:13:05;;;;;;;56.82;12.86;;;;;;;24.16;64.60;99450.37;382617;105;1964056;-70
2021/06/24 01:14:18;;;;;;;43.87;13.48;;;;;;;24.24;64.81;99438.64;337663;104;2345060;-72
2021/06/24 01:15:24;;;;;;;46.29;12.16;;;;;;;24.12;64.78;99450.16;370521;105;1965001;-72
2021/06/24 01:16:29;;;;;;;42.41;12.72;;;;;;;24.09;64.84;99450.77;375926;105;1965853;-72
2021/06/24 01:17:43;;;;;;;46.19;12.84;;;;;;;24.17;65.02;99452.03;393564;104;2074024;-72
2021/06/24 01:18:49;;;;;;;49.32;11.88;;;;;;;24.05;65.01;99446.95;360629;105;2864722;-72
2021/06/24 01:20:02;;;;;;;49.32;12.75;;;;;;;24.14;65.21;99439.65;390873;103;2072006;-71
2021/06/24 01:21:09;;;;;;;53.08;12.81;;;;;;;24.02;65.18;99450.33;365178;107;2877397;-72
2021/06/24 01:22:34;;;;;;;45.00;11.83;;;;;;;23.98;65.44;99450.11;374722;105;1962014;-70
2021/06/24 01:23:43;;;;;;;49.41;12.76;;;;;;;23.95;65.39;99450.72;356662;110;1961977;-71
2021/06/24 01:24:56;;;;;;;45.81;13.08;;;;;;;24.03;65.74;99443.70;393353;104;1985936;-74
2021/06/24 01:26:02;;;;;;;38.99;11.88;;;;;;;23.90;65.54;99446.09;315610;106;2306061;-72
2021/06/24 01:27:14;;;;;;;56.95;13.38;;;;;;;24.02;65.75;99450.33;391134;104;2071988;-72
2021/06/24 01:28:19;;;;;;;47.92;12.64;;;;;;;23.88;65.79;99450.27;375647;106;1969011;-69
2021/06/24 01:29:43;;;;;;;51.46;13.39;;;;;;;23.86;65.80;99447.80;359932;107;2872020;-70
2021/06/24 01:30:55;;;;;;;49.84;13.22;;;;;;;23.96;65.90;99452.34;388583;104;1986009;-69
2021/06/24 01:32:00;;;;;;;47.33;12.58;;;;;;;23.83;66.03;99455.86;363899;107;1961954;-71
2021/06/24 01:33:07;;;;;;;52.14;13.76;;;;;;;23.81;66.10;99449.81;361718;105;1961971;-70
2021/06/24 01:34:18;;;;;;;41.09;12.79;;;;;;;23.88;66.13;99453.03;393391;103;1973067;-72
2021/06/24 01:35:27;;;;;;;54.10;14.45;;;;;;;23.74;66.18;99449.36;374137;107;1966049;-70
2021/06/24 01:36:35;;;;;;;43.44;12.87;;;;;;;23.74;66.24;99454.88;373960;106;1963013;-72
2021/06/24 01:37:41;;;;;;;45.68;13.17;;;;;;;23.72;66.29;99452.44;367286;107;2921004;-72
2021/06/24 01:38:53;;;;;;;53.46;12.40;;;;;;;23.80;66.51;99443.48;372442;108;1986722;-71
2021/06/24 01:40:00;;;;;;;50.30;12.87;;;;;;;23.67;66.54;99450.53;354085;114;1962072;-72
2021/06/24 01:41:05;;;;;;;49.74;13.57;;;;;;;23.66;66.58;99451.67;355062;112;1963009;-73
2021/06/24 01:42:19;;;;;;;53.34;13.48;;;;;;;23.75;66.71;99453.78;357937;104;2691938;-72
2021/06/24 01:43:25;;;;;;;46.69;12.37;;;;;;;23.64;66.62;99444.81;338789;105;2106909;-71
2021/06/24 01:44:38;;;;;;;51.82;13.75;;;;;;;23.73;66.72;99442.22;393601;104;1985911;-74
2021/06/24 01:45:46;;;;;;;55.51;14.16;;;;;;;23.60;66.69;99441.80;373667;106;1964058;-74
2021/06/24 01:47:00;;;;;;;48.02;11.70;;;;;;;23.71;66.92;99442.51;403177;104;1986078;-73
2021/06/24 01:48:06;;;;;;;53.13;13.61;;;;;;;23.59;66.86;99444.87;329541;105;2889014;-71
2021/06/24 01:49:12;;;;;;;49.53;12.62;;;;;;;23.58;66.94;99446.01;375764;107;1962055;-71
2021/06/24 01:50:24;;;;;;;51.84;13.50;;;;;;;23.67;67.01;99442.27;383833;106;2072046;-72
2021/06/24 01:51:31;;;;;;;50.99;12.82;;;;;;;23.56;66.96;99450.99;367526;108;1964081;-72
2021/06/24 01:52:45;;;;;;;53.40;15.14;;;;;;;23.65;67.04;99446.44;392216;104;1962098;-71
2021/06/24 01:53:51;;;;;;;46.01;13.01;;;;;;;23.52;67.04;99450.75;374595;106;1964962;-72
2021/06/24 01:55:16;;;;;;;48.19;12.43;;;;;;;23.51;67.05;99456.58;372788;106;1962938;-71
2021/06/24 01:56:28;;;;;;;53.02;13.78;;;;;;;23.60;67.37;99446.51;405839;101;1965012;-72
2021/06/24 01:57:36;;;;;;;41.58;11.87;;;;;;;23.47;67.05;99450.81;387414;103;1961839;-72
2021/06/24 01:58:48;;;;;;;49.39;14.02;;;;;;;23.58;67.03;99448.77;383434;106;2073066;-72
2021/06/24 01:59:57;;;;;;;53.22;12.86;;;;;;;23.47;66.89;99446.15;319600;110;2777032;-73
2021/06/24 02:01:23;;;;;;;39.67;12.79;;;;;;;23.46;66.76;99450.00;358381;110;1962053;-73
2021/06/24 02:02:35;;;;;;;57.85;14.07;;;;;;;23.57;66.70;99453.44;383722;104;2957051;-71
2021/06/24 02:03:42;;;;;;;55.25;14.66;;;;;;;23.44;66.67;99443.95;365342;109;1962036;-72
2021/06/24 02:04:54;;;;;;;47.77;14.16;;;;;;;23.55;66.71;99446.58;385450;106;1985936;-73
2021/06/24 02:06:04;;;;;;;46.06;14.36;;;;;;;23.43;66.57;99453.36;358984;109;2943991;-72
2021/06/24 02:07:29;;;;;;;50.33;13.09;;;;;;;23.42;66.43;99448.16;365880;109;1962068;-73
2021/06/24 02:08:53;;;;;;;48.82;13.64;;;;;;;23.41;66.41;99452.83;353471;112;1962030;-73
2021/06/24 02:10:06;;;;;;;41.79;12.91;;;;;;;23.53;66.41;99448.84;397971;104;1987067;-74
2021/06/24 02:11:14;;;;;;;53.52;13.72;;;;;;;23.40;66.30;99453.95;367713;107;2886062;-72
2021/06/24 02:12:20;;;;;;;52.30;13.18;;;;;;;23.40;66.20;99451.20;340598;107;2608941;-73
2021/06/24 02:13:32;;;;;;;52.24;13.28;;;;;;;23.51;66.23;99443.60;371897;109;2071962;-73
2021/06/24 02:14:37;;;;;;;45.02;12.78;;;;;;;23.42;66.05;99456.42;357401;114;1961981;-73
2021/06/24 02:15:51;;;;;;;46.92;13.61;;;;;;;23.55;65.92;99449.33;388342;104;2071012;-74
2021/06/24 02:16:57;;;;;;;44.44;12.34;;;;;;;23.43;65.87;99444.27;356031;107;1969930;-73
2021/06/24 02:18:22;;;;;;;43.42;12.37;;;;;;;23.42;65.83;99446.21;338944;107;2879052;-73
2021/06/24 02:19:34;;;;;;;49.82;12.51;;;;;;;23.56;65.89;99451.81;391630;104;1965005;-72
2021/06/24 02:20:58;;;;;;;50.46;14.68;;;;;;;23.45;65.76;99442.86;337936;107;2075943;-72
2021/06/24 02:22:16;;;;;;;47.06;12.53;;;;;;;23.48;65.61;99453.28;362365;110;1962039;-74
2021/06/24 02:23:24;;;;;;;49.46;11.68;;;;;;;23.48;65.47;99445.02;326680;108;2743037;-73
2021/06/24 02:24:31;;;;;;;49.94;13.35;;;;;;;23.49;65.33;99446.64;376176;106;1964008;-73
2021/06/24 02:25:44;;;;;;;44.47;13.39;;;;;;;23.62;65.30;99450.61;400867;104;1987004;-73
2021/06/24 02:27:08;;;;;;;51.39;12.10;;;;;;;23.53;65.21;99440.56;379814;105;1961993;-74
2021/06/24 02:28:21;;;;;;;51.66;14.29;;;;;;;23.67;65.03;99449.72;359595;104;2887075;-74
2021/06/24 02:29:45;;;;;;;43.87;14.62;;;;;;;23.54;64.94;99448.52;368230;107;1961943;-74
2021/06/24 02:31:08;;;;;;;54.79;13.92;;;;;;;23.57;64.85;99456.19;368810;107;1963873;-72
2021/06/24 02:32:21;;;;;;;47.43;12.56;;;;;;;23.69;64.77;99451.06;395399;104;1985996;-74
2021/06/24 02:33:33;;;;;;;56.95;12.48;;;;;;;23.58;64.78;99457.85;373738;105;1962021;-73
2021/06/24 02:34:47;;;;;;;50.26;14.13;;;;;;;23.70;64.75;99455.45;403632;101;1985986;-74
2021/06/24 02:35:58;;;;;;;46.95;11.88;;;;;;;23.59;64.60;99459.48;384041;105;1962999;-73
2021/06/24 02:37:22;;;;;;;52.09;12.83;;;;;;;23.61;64.63;99459.20;383118;104;1961889;-74
2021/06/24 02:38:35;;;;;;;53.86;11.75;;;;;;;23.71;64.61;99448.02;350485;104;2738068;-73
2021/06/24 02:39:40;;;;;;;52.93;12.46;;;;;;;23.60;64.53;99455.59;313998;108;2250914;-74
2021/06/24 02:40:47;;;;;;;43.19;12.97;;;;;;;23.62;64.50;99453.36;370894;108;1961894;-75
2021/06/24 02:41:53;;;;;;;50.55;13.32;;;;;;;23.63;64.48;99462.45;371949;108;1962031;-74
2021/06/24 02:42:58;;;;;;;44.27;12.38;;;;;;;23.65;64.37;99465.73;371299;108;1961914;-74
2021/06/24 02:44:11;;;;;;;44.55;11.58;;;;;;;23.79;64.22;99452.05;393185;104;1986509;-75
2021/06/24 02:45:16;;;;;;;44.43;12.02;;;;;;;23.69;64.24;99459.34;359629;106;2862933;-72
2021/06/24 02:46:29;;;;;;;49.94;13.23;;;;;;;23.82;64.08;99460.56;386155;105;1965204;-74
2021/06/24 02:47:36;;;;;;;53.57;13.20;;;;;;;23.74;63.90;99461.24;367453;109;1962941;-72
2021/06/24 02:49:00;;;;;;;55.71;12.93;;;;;;;23.77;63.79;99459.83;367409;108;1962031;-73
2021/06/24 02:50:16;;;;;;;65.28;13.64;;;;;;;23.89;63.70;99460.98;392326;104;1986012;-72
2021/06/24 02:51:22;;;;;;;45.37;13.32;;;;;;;23.81;63.60;99467.18;374923;107;1962032;-73
2021/06/24 02:52:45;;;;;;;59.84;13.99;;;;;;;23.83;63.56;99464.95;371610;107;1962006;-71
2021/06/24 02:53:57;;;;;;;53.76;13.39;;;;;;;23.98;63.39;99468.61;390531;104;1987003;-72
2021/06/24 02:55:05;;;;;;;57.83;13.12;;;;;;;23.88;63.33;99464.88;371102;107;1959793;-71
2021/06/24 02:56:17;;;;;;;54.92;12.24;;;;;;;24.02;62.89;99461.36;403646;101;1987057;-73
2021/06/24 02:57:23;;;;;;;49.11;13.94;;;;;;;23.94;62.86;99462.05;383811;103;1964026;-73
2021/06/24 02:58:34;;;;;;;49.86;12.54;;;;;;;24.08;62.13;99460.15;384426;105;1985957;-73
2021/06/24 02:59:48;;;;;;;48.85;12.95;;;;;;;23.99;62.22;99461.97;288529;110;2342066;-72
2021/06/24 03:01:13;;;;;;;58.42;13.68;;;;;;;24.02;62.02;99464.94;316239;110;2809969;-73
2021/06/24 03:02:25;;;;;;;68.91;14.19;;;;;;;24.10;61.93;99457.91;385429;106;1961894;-72
2021/06/24 03:03:31;;;;;;;51.43;12.41;;;;;;;24.07;61.98;99464.86;368302;108;1968923;-73
2021/06/24 03:04:45;;;;;;;55.26;12.89;;;;;;;24.23;61.98;99468.19;347302;104;2232017;-73
2021/06/24 03:05:50;;;;;;;48.03;11.84;;;;;;;24.15;61.59;99471.63;371327;106;1962815;-75
2021/06/24 03:07:03;;;;;;;46.15;13.66;;;;;;;24.31;61.08;99472.20;381798;106;2072904;-74
2021/06/24 03:08:11;;;;;;;60.17;13.51;;;;;;;24.25;60.93;99476.18;323541;108;2797071;-72
2021/06/24 03:09:41;;;;;;;53.57;12.27;;;;;;;24.28;60.46;99470.86;347500;109;1961995;-72
2021/06/24 03:10:56;;;;;;;55.62;12.75;;;;;;;24.44;60.51;99463.17;375411;108;1984768;-73
2021/06/24 03:12:03;;;;;;;47.98;13.02;;;;;;;24.36;60.55;99475.69;307473;113;2866843;-73
2021/06/24 03:13:15;;;;;;;37.14;11.11;;;;;;;24.46;60.09;99463.69;381207;105;1984747;-72
2021/06/24 03:14:21;;;;;;;41.46;11.75;;;;;;;24.45;60.03;99477.79;359230;112;1960784;-72
2021/06/24 03:15:45;;;;;;;44.89;11.95;;;;;;;24.47;59.67;99473.61;358135;112;1962078;-72
2021/06/24 03:16:57;;;;;;;45.95;11.64;;;;;;;24.63;59.31;99468.63;391304;104;1986005;-73
2021/06/24 03:18:04;;;;;;;45.56;11.91;;;;;;;24.55;59.25;99469.33;376847;106;1961935;-73
2021/06/24 03:19:11;;;;;;;43.58;11.57;;;;;;;24.59;59.13;99470.38;341651;106;2660077;-73
2021/06/24 03:20:27;;;;;;;49.68;11.38;;;;;;;24.74;58.66;99470.10;396883;104;1987071;-72
2021/06/24 03:21:37;;;;;;;43.73;10.89;;;;;;;24.76;58.10;99467.02;396147;104;1987059;-73
2021/06/24 03:22:43;;;;;;;46.56;12.56;;;;;;;24.67;58.39;99466.91;375286;105;1963005;-72
2021/06/24 03:23:48;;;;;;;48.52;12.42;;;;;;;24.71;58.18;99467.11;375479;107;1961886;-74
2021/06/24 03:24:54;;;;;;;54.96;13.83;;;;;;;24.74;58.13;99467.34;378173;105;1961025;-72
2021/06/24 03:26:07;;;;;;;46.89;12.62;;;;;;;24.88;58.12;99467.34;401177;101;1987047;-73
2021/06/24 03:27:13;;;;;;;53.22;12.31;;;;;;;24.80;57.81;99468.06;337442;105;2788956;-73
2021/06/24 03:28:25;;;;;;;42.84;12.22;;;;;;;24.93;57.66;99467.25;392748;104;1965004;-72
2021/06/24 03:29:33;;;;;;;49.61;12.57;;;;;;;24.86;57.84;99466.83;371753;107;1962071;-71
2021/06/24 03:30:57;;;;;;;49.92;11.87;;;;;;;24.87;57.76;99471.22;370973;107;1961994;-74
2021/06/24 03:32:09;;;;;;;48.50;12.59;;;;;;;25.00;57.59;99462.12;392965;104;1986941;-74
2021/06/24 03:33:15;;;;;;;50.26;13.24;;;;;;;24.92;57.58;99470.31;365823;107;2833979;-73
2021/06/24 03:34:20;;;;;;;44.52;12.28;;;;;;;24.95;57.63;99472.45;356295;107;2849909;-74
2021/06/24 03:35:32;;;;;;;44.60;11.63;;;;;;;25.09;57.68;99465.00;374429;109;1987062;-72
2021/06/24 03:36:38;;;;;;;51.61;11.74;;;;;;;25.01;57.69;99461.01;356892;111;1962013;-72
2021/06/24 03:37:50;;;;;;;55.19;12.77;;;;;;;25.16;57.61;99464.61;392452;104;1987973;-72
2021/06/24 03:38:55;;;;;;;37.20;12.41;;;;;;;25.07;57.55;99461.72;375225;105;1961885;-72
2021/06/24 03:40:20;;;;;;;52.51;13.69;;;;;;;25.11;57.55;99456.39;375663;105;1961955;-73
2021/06/24 03:41:32;;;;;;;37.93;11.80;;;;;;;25.26;57.30;99455.30;392927;103;1986029;-73
2021/06/24 03:42:37;;;;;;;45.68;13.46;;;;;;;25.18;57.19;99454.07;375366;105;1962087;-72
2021/06/24 03:43:42;;;;;;;41.41;11.02;;;;;;;25.21;57.20;99454.27;373946;106;1963075;-73
2021/06/24 03:44:49;;;;;;;48.55;13.59;;;;;;;25.25;56.93;99453.67;370209;107;1961983;-72
2021/06/24 03:46:01;;;;;;;49.80;12.54;;;;;;;25.38;56.80;99450.88;384517;104;1985935;-73
2021/06/24 03:47:08;;;;;;;38.04;11.44;;;;;;;25.31;56.72;99447.70;377045;106;1963920;-73
2021/06/24 03:48:21;;;;;;;58.61;15.87;;;;;;;25.45;56.44;99450.45;393542;104;1986988;-73
2021/06/24 03:49:28;;;;;;;42.80;12.11;;;;;;;25.37;56.34;99449.23;371546;109;1964028;-73
2021/06/24 03:50:52;;;;;;;43.69;12.12;;;;;;;25.40;56.11;99443.10;363023;111;1964135;-72
2021/06/24 03:52:07;;;;;;;44.73;11.13;;;;;;;25.56;55.80;99445.51;379392;109;1986045;-74
2021/06/24 03:53:13;;;;;;;44.33;11.77;;;;;;;25.48;55.73;99446.24;354136;111;1965016;-74
2021/06/24 03:54:24;;;;;;;46.51;11.04;;;;;;;25.61;55.27;99448.97;386682;104;1986011;-74
2021/06/24 03:55:46;;;;;;;44.99;13.11;;;;;;;25.54;55.07;99450.55;376663;107;1963918;-74
2021/06/24 03:57:08;;;;;;;49.18;12.79;;;;;;;25.56;54.86;99454.64;360547;113;1961994;-74
2021/06/24 03:58:21;;;;;;;46.83;12.78;;;;;;;25.71;54.67;99447.12;351979;103;2187945;-71
2021/06/24 03:59:26;;;;;;;36.43;9.77;;;;;;;25.63;54.57;99454.20;323042;106;2266796;-71
2021/06/24 04:00:44;;;;;;;42.12;12.14;;;;;;;25.78;54.32;99455.81;396322;103;2071989;-71
2021/06/24 04:01:51;;;;;;;47.72;12.23;;;;;;;25.69;54.12;99458.48;375137;107;1969953;-72
2021/06/24 04:03:15;;;;;;;44.48;11.12;;;;;;;25.74;54.14;99458.37;375607;105;1960851;-71
2021/06/24 04:04:29;;;;;;;45.93;12.23;;;;;;;25.90;53.47;99452.52;392625;104;2071915;-71
2021/06/24 04:05:35;;;;;;;48.86;11.70;;;;;;;25.82;53.77;99454.05;372341;107;1962044;-71
2021/06/24 04:06:41;;;;;;;43.87;11.47;;;;;;;25.84;53.05;99452.63;376959;105;1962024;-71
2021/06/24 04:07:54;;;;;;;52.43;12.33;;;;;;;25.97;52.96;99452.91;388576;106;1985981;-70
2021/06/24 04:08:59;;;;;;;40.72;11.70;;;;;;;25.86;53.14;99455.91;360296;108;2924996;-71
2021/06/24 04:10:12;;;;;;;36.69;11.66;;;;;;;26.00;53.00;99449.50;393627;104;1987852;-71
2021/06/24 04:11:18;;;;;;;44.03;11.40;;;;;;;25.92;53.06;99450.26;374232;107;1961973;-71
2021/06/24 04:12:50;;;;;;;45.69;11.54;;;;;;;25.93;53.07;99451.88;372726;107;1962037;-71
2021/06/24 04:14:02;;;;;;;41.71;11.23;;;;;;;26.06;53.01;99446.28;385702;104;2859982;-71
2021/06/24 04:15:18;;;;;;;39.68;9.82;;;;;;;25.98;52.97;99448.99;300207;107;2481013;-71
2021/06/24 04:16:30;;;;;;;40.32;11.46;;;;;;;26.12;53.07;99446.16;396205;104;1962133;-70
2021/06/24 04:17:36;;;;;;;50.17;13.10;;;;;;;26.02;52.92;99448.06;375941;106;1969981;-72
2021/06/24 04:19:00;;;;;;;46.83;11.24;;;;;;;26.05;52.90;99452.97;346804;108;1987984;-71
2021/06/24 04:20:12;;;;;;;37.32;10.11;;;;;;;26.21;52.70;99447.05;395272;104;1987081;-71
2021/06/24 04:21:19;;;;;;;50.71;12.72;;;;;;;26.13;52.58;99451.39;376454;107;1962896;-72
2021/06/24 04:22:25;;;;;;;41.17;11.19;;;;;;;26.15;52.47;99456.63;358904;110;2922962;-72
2021/06/24 04:23:37;;;;;;;45.91;12.13;;;;;;;26.28;52.32;99453.79;392797;103;1985959;-70
2021/06/24 04:24:44;;;;;;;45.27;11.79;;;;;;;26.21;52.29;99458.13;378546;107;1961847;-70
2021/06/24 04:25:57;;;;;;;39.74;10.04;;;;;;;26.34;51.89;99457.24;386665;106;1986976;-71
2021/06/24 04:27:05;;;;;;;38.33;9.92;;;;;;;26.25;52.00;99456.35;316577;112;2854023;-70
2021/06/24 04:28:29;;;;;;;42.32;12.18;;;;;;;26.26;51.98;99455.23;301234;109;2341007;-69
2021/06/24 04:29:41;;;;;;;43.77;12.36;;;;;;;26.42;51.39;99458.44;392750;104;2074128;-70
2021/06/24 04:30:47;;;;;;;40.61;11.57;;;;;;;26.31;51.63;99455.92;380739;105;1961973;-70
2021/06/24 04:31:53;;;;;;;41.53;11.30;;;;;;;26.35;51.75;99458.05;366250;109;1960861;-70
2021/06/24 04:33:05;;;;;;;48.49;13.41;;;;;;;26.50;51.66;99454.89;383861;104;2971953;-70
2021/06/24 04:34:12;;;;;;;44.11;11.72;;;;;;;26.43;51.68;99460.87;368397;109;1962033;-69
2021/06/24 04:35:24;;;;;;;39.22;11.26;;;;;;;26.60;51.65;99460.20;396472;103;1985962;-70
2021/06/24 04:36:33;;;;;;;34.90;10.91;;;;;;;26.53;51.47;99462.59;322142;110;2868031;-71
2021/06/24 04:38:05;;;;;;;34.28;12.28;;;;;;;26.71;50.99;99452.44;402898;104;1963014;-72
2021/06/24 04:39:12;;;;;;;45.38;12.09;;;;;;;26.64;51.13;99454.83;375043;106;1970023;-71
2021/06/24 04:40:37;;;;;;;42.39;12.39;;;;;;;26.68;50.93;99453.89;377170;105;1962013;-71
2021/06/24 04:41:50;;;;;;;41.35;12.34;;;;;;;26.86;50.72;99454.79;347411;104;2791911;-71
2021/06/24 04:42:55;;;;;;;38.08;10.69;;;;;;;26.79;50.71;99456.38;330118;107;2175936;-70
2021/06/24 04:44:13;;;;;;;42.73;12.44;;;;;;;26.95;50.53;99454.82;390134;106;1987007;-70
2021/06/24 04:45:21;;;;;;;41.19;11.73;;;;;;;26.85;50.11;99458.68;366887;108;1962045;-71
2021/06/24 04:46:54;;;;;;;;;;;;;;;26.88;50.26;99460.81;352056;107;1961056;-72
2021/06/24 04:48:01;;;;;;;31.40;10.07;;;;;;;26.92;49.82;99459.05;365804;109;1962016;-71
2021/06/24 04:49:13;;;;;;;33.79;9.49;;;;;;;27.07;49.76;99468.05;344846;101;2529082;-71
2021/06/24 04:50:24;;;;;;;41.94;10.80;;;;;;;26.97;49.63;99469.99;323930;104;2577041;-71
2021/06/24 04:51:36;;;;;;;34.97;10.08;;;;;;;27.14;49.35;99471.19;395606;104;1961990;-71
2021/06/24 04:52:42;;;;;;;38.17;9.80;;;;;;;27.05;49.08;99470.36;376010;106;1968924;-71
2021/06/24 04:53:47;;;;;;;41.28;11.11;;;;;;;27.09;49.04;99471.33;371144;107;1964011;-70
2021/06/24 04:55:01;;;;;;;38.28;9.99;;;;;;;27.25;48.84;99468.97;402615;104;1986030;-73
2021/06/24 04:56:07;;;;;;;36.37;10.26;;;;;;;27.15;48.73;99465.34;378870;105;1961989;-72
2021/06/24 04:57:19;;;;;;;43.17;10.21;;;;;;;27.31;47.86;99460.19;387451;106;1985968;-71
2021/06/24 04:58:41;;;;;;;31.51;8.25;;;;;;;27.25;48.06;99471.74;366682;108;1963164;-71
2021/06/24 05:00:19;;;;;;;37.58;11.60;;;;;;;27.31;48.13;99473.22;308313;109;2289031;-71
2021/06/24 05:01:38;;;;;;;38.35;9.99;;;;;;;27.53;48.09;99475.89;377754;109;1986011;-72
2021/06/24 05:03:02;;;;;;;33.81;10.69;;;;;;;27.48;47.77;99473.27;358822;112;1963961;-71
2021/06/24 05:04:14;;;;;;;38.37;10.07;;;;;;;27.71;47.73;99476.75;359776;108;2857004;-71
2021/06/24 05:05:20;;;;;;;35.34;10.74;;;;;;;27.68;47.47;99474.63;371238;108;1962021;-72
2021/06/24 05:06:49;;;;;;;40.97;11.01;;;;;;;27.77;47.11;99480.17;368573;109;1961921;-72
2021/06/24 05:08:01;;;;;;;33.39;10.33;;;;;;;28.00;47.04;99484.47;389189;106;1986060;-71
2021/06/24 05:09:07;;;;;;;38.62;10.09;;;;;;;27.98;46.93;99483.16;313968;111;2609972;-70
2021/06/24 05:10:21;;;;;;;41.26;10.71;;;;;;;28.21;46.72;99475.45;392646;104;2072998;-70
2021/06/24 05:11:26;;;;;;;36.64;9.73;;;;;;;28.20;46.55;99477.42;375519;107;1963012;-72
2021/06/24 05:12:50;;;;;;;38.52;9.28;;;;;;;28.28;46.39;99473.00;376618;105;1961949;-71
2021/06/24 05:14:04;;;;;;;39.16;10.19;;;;;;;28.45;46.03;99459.13;380989;106;1987067;-71
2021/06/24 05:15:10;;;;;;;44.32;10.03;;;;;;;28.52;45.94;99475.27;361901;111;1963000;-72
2021/06/24 05:16:22;;;;;;;37.58;9.98;;;;;;;28.76;45.40;99477.49;394445;104;1965013;-71
2021/06/24 05:17:29;;;;;;;40.31;10.37;;;;;;;28.76;45.41;99471.12;373569;107;1962039;-72
2021/06/24 05:18:42;;;;;;;42.97;12.51;;;;;;;28.96;44.85;99469.59;395228;104;1964912;-72
2021/06/24 05:19:48;;;;;;;32.57;10.17;;;;;;;28.88;44.25;99472.06;367695;106;1963061;-72
2021/06/24 05:21:12;;;;;;;34.98;10.24;;;;;;;28.91;44.40;99467.80;376641;105;1962027;-71
2021/06/24 05:22:26;;;;;;;32.71;10.47;;;;;;;29.05;44.46;99470.39;388622;104;1961996;-71
2021/06/24 05:23:31;;;;;;;34.05;9.39;;;;;;;28.96;44.49;99470.41;375329;106;1968975;-72